sensor_id;sensor_type;location;lat;lon;timestamp;pressure;altitude;pressure_sealevel;temperature;humidity
59367;BME280;45163;47.690;11.770;2023-06-10T00:02:09;92896.75;;;14.15;100.00
59367;BME280;45163;47.690;11.770;2023-06-10T00:04:35;92898.97;;;14.26;100.00
59367;BME280;45163;47.690;11.770;2023-06-10T00:07:05;92889.56;;;14.18;100.00
59367;BME280;45163;47.690;11.770;2023-06-10T00:09:37;92899.00;;;14.17;100.00
59367;BME280;45163;47.690;11.770;2023-06-10T00:12:05;92896.56;;;14.19;100.00
59367;BME280;45163;47.690;11.770;2023-06-10T00:14:33;92885.94;;;14.12;100.00
59367;BME280;45163;47.690;11.770;2023-06-10T00:16:59;92889.22;;;14.01;100.00
59367;BME280;45163;47.690;11.770;2023-06-10T00:19:25;92890.22;;;14.13;100.00
59367;BME280;45163;47.690;11.770;2023-06-10T00:21:58;92891.66;;;13.99;100.00
59367;BME280;45163;47.690;11.770;2023-06-10T00:24:24;92889.31;;;14.07;100.00
59367;BME280;45163;47.690;11.770;2023-06-10T00:26:51;92890.38;;;14.09;100.00
59367;BME280;45163;47.690;11.770;2023-06-10T00:29:17;92894.34;;;13.84;100.00
59367;BME280;45163;47.690;11.770;2023-06-10T00:31:44;92895.38;;;13.87;100.00
59367;BME280;45163;47.690;11.770;2023-06-10T00:34:11;92899.47;;;13.91;100.00
59367;BME280;45163;47.690;11.770;2023-06-10T00:36:37;92900.91;;;13.78;100.00
59367;BME280;45163;47.690;11.770;2023-06-10T00:39:03;92892.69;;;13.78;100.00
59367;BME280;45163;47.690;11.770;2023-06-10T00:41:30;92900.97;;;13.68;100.00
59367;BME280;45163;47.690;11.770;2023-06-10T00:43:56;92893.81;;;13.71;100.00
59367;BME280;45163;47.690;11.770;2023-06-10T00:46:23;92895.66;;;13.65;100.00
59367;BME280;45163;47.690;11.770;2023-06-10T00:48:51;92896.78;;;13.49;100.00
59367;BME280;45163;47.690;11.770;2023-06-10T00:51:18;92902.13;;;13.43;100.00
59367;BME280;45163;47.690;11.770;2023-06-10T00:53:45;92898.16;;;13.44;100.00
59367;BME280;45163;47.690;11.770;2023-06-10T00:56:11;92898.03;;;13.39;100.00
59367;BME280;45163;47.690;11.770;2023-06-10T00:58:37;92898.69;;;13.34;100.00
59367;BME280;45163;47.690;11.770;2023-06-10T01:01:03;92891.06;;;13.19;100.00
59367;BME280;45163;47.690;11.770;2023-06-10T01:03:29;92891.22;;;13.16;100.00
59367;BME280;45163;47.690;11.770;2023-06-10T01:11:47;92898.53;;;13.28;100.00
59367;BME280;45163;47.690;11.770;2023-06-10T01:14:16;92896.09;;;13.21;100.00
59367;BME280;45163;47.690;11.770;2023-06-10T01:16:43;92904.31;;;13.21;100.00
59367;BME280;45163;47.690;11.770;2023-06-10T01:19:11;92900.81;;;13.11;100.00
59367;BME280;45163;47.690;11.770;2023-06-10T01:21:38;92904.03;;;13.10;100.00
59367;BME280;45163;47.690;11.770;2023-06-10T01:24:05;92897.63;;;13.04;100.00
59367;BME280;45163;47.690;11.770;2023-06-10T01:26:34;92905.09;;;13.03;100.00
59367;BME280;45163;47.690;11.770;2023-06-10T01:29:07;92900.41;;;12.94;100.00
59367;BME280;45163;47.690;11.770;2023-06-10T01:31:48;92908.16;;;12.87;100.00
59367;BME280;45163;47.690;11.770;2023-06-10T01:34:17;92905.28;;;12.81;100.00
59367;BME280;45163;47.690;11.770;2023-06-10T01:36:48;92906.81;;;12.82;100.00
59367;BME280;45163;47.690;11.770;2023-06-10T01:39:16;92904.09;;;12.73;100.00
59367;BME280;45163;47.690;11.770;2023-06-10T01:41:43;92894.66;;;12.74;100.00
59367;BME280;45163;47.690;11.770;2023-06-10T01:44:10;92906.09;;;12.63;100.00
59367;BME280;45163;47.690;11.770;2023-06-10T01:46:36;92908.06;;;12.63;100.00
59367;BME280;45163;47.690;11.770;2023-06-10T01:49:02;92909.09;;;12.65;100.00
59367;BME280;45163;47.690;11.770;2023-06-10T01:51:28;92911.84;;;12.47;100.00
59367;BME280;45163;47.690;11.770;2023-06-10T01:53:55;92909.56;;;12.45;100.00
59367;BME280;45163;47.690;11.770;2023-06-10T01:56:21;92919.59;;;12.21;100.00
59367;BME280;45163;47.690;11.770;2023-06-10T01:58:47;92913.19;;;12.24;100.00
59367;BME280;45163;47.690;11.770;2023-06-10T02:01:13;92910.16;;;12.40;100.00
59367;BME280;45163;47.690;11.770;2023-06-10T02:03:39;92910.78;;;12.26;100.00
59367;BME280;45163;47.690;11.770;2023-06-10T02:06:06;92907.91;;;12.48;100.00
59367;BME280;45163;47.690;11.770;2023-06-10T02:08:32;92907.00;;;12.51;100.00
59367;BME280;45163;47.690;11.770;2023-06-10T02:10:58;92903.78;;;12.43;100.00
59367;BME280;45163;47.690;11.770;2023-06-10T02:13:23;92898.00;;;12.32;100.00
59367;BME280;45163;47.690;11.770;2023-06-10T02:15:50;92907.28;;;12.35;100.00
59367;BME280;45163;47.690;11.770;2023-06-10T02:18:15;92903.34;;;12.27;100.00
59367;BME280;45163;47.690;11.770;2023-06-10T02:20:41;92911.97;;;12.16;100.00
59367;BME280;45163;47.690;11.770;2023-06-10T02:23:07;92902.41;;;12.20;100.00
59367;BME280;45163;47.690;11.770;2023-06-10T02:25:33;92910.31;;;12.28;100.00
59367;BME280;45163;47.690;11.770;2023-06-10T02:27:59;92909.25;;;12.16;100.00
59367;BME280;45163;47.690;11.770;2023-06-10T02:30:25;92911.69;;;12.14;100.00
59367;BME280;45163;47.690;11.770;2023-06-10T02:32:51;92906.66;;;12.12;100.00
59367;BME280;45163;47.690;11.770;2023-06-10T02:35:18;92908.47;;;12.15;100.00
59367;BME280;45163;47.690;11.770;2023-06-10T02:37:44;92913.59;;;11.95;100.00
59367;BME280;45163;47.690;11.770;2023-06-10T02:40:11;92908.91;;;11.95;100.00
59367;BME280;45163;47.690;11.770;2023-06-10T02:42:37;92911.31;;;11.84;100.00
59367;BME280;45163;47.690;11.770;2023-06-10T02:45:04;92919.00;;;11.77;100.00
59367;BME280;45163;47.690;11.770;2023-06-10T02:47:30;92909.81;;;11.83;100.00
59367;BME280;45163;47.690;11.770;2023-06-10T02:49:56;92916.41;;;11.73;100.00
59367;BME280;45163;47.690;11.770;2023-06-10T02:52:22;92921.75;;;11.77;100.00
59367;BME280;45163;47.690;11.770;2023-06-10T02:54:48;92924.09;;;11.87;100.00
59367;BME280;45163;47.690;11.770;2023-06-10T02:57:14;92922.41;;;11.90;100.00
59367;BME280;45163;47.690;11.770;2023-06-10T02:59:40;92922.25;;;11.84;100.00
59367;BME280;45163;47.690;11.770;2023-06-10T03:02:06;92926.00;;;11.78;100.00
59367;BME280;45163;47.690;11.770;2023-06-10T03:04:33;92922.69;;;11.83;100.00
59367;BME280;45163;47.690;11.770;2023-06-10T03:06:59;92916.56;;;11.79;100.00
59367;BME280;45163;47.690;11.770;2023-06-10T03:09:29;92917.69;;;11.90;100.00
59367;BME280;45163;47.690;11.770;2023-06-10T03:11:55;92915.56;;;11.85;100.00
59367;BME280;45163;47.690;11.770;2023-06-10T03:14:21;92918.75;;;11.84;100.00
59367;BME280;45163;47.690;11.770;2023-06-10T03:16:47;92917.22;;;11.83;100.00
59367;BME280;45163;47.690;11.770;2023-06-10T03:19:13;92917.34;;;11.79;100.00
59367;BME280;45163;47.690;11.770;2023-06-10T03:21:43;92924.34;;;11.80;100.00
59367;BME280;45163;47.690;11.770;2023-06-10T03:24:09;92923.47;;;11.83;100.00
59367;BME280;45163;47.690;11.770;2023-06-10T03:26:36;92926.47;;;11.76;100.00
59367;BME280;45163;47.690;11.770;2023-06-10T03:29:02;92929.78;;;11.71;100.00
59367;BME280;45163;47.690;11.770;2023-06-10T03:31:28;92922.75;;;11.61;100.00
59367;BME280;45163;47.690;11.770;2023-06-10T03:33:55;92927.91;;;11.59;100.00
59367;BME280;45163;47.690;11.770;2023-06-10T03:36:21;92923.66;;;11.58;100.00
59367;BME280;45163;47.690;11.770;2023-06-10T03:38:47;92932.75;;;11.55;100.00
59367;BME280;45163;47.690;11.770;2023-06-10T03:41:13;92934.16;;;11.59;100.00
59367;BME280;45163;47.690;11.770;2023-06-10T03:43:40;92931.56;;;11.65;100.00
59367;BME280;45163;47.690;11.770;2023-06-10T03:46:06;92940.41;;;11.69;100.00
59367;BME280;45163;47.690;11.770;2023-06-10T03:48:32;92937.38;;;11.67;100.00
59367;BME280;45163;47.690;11.770;2023-06-10T03:50:58;92940.53;;;11.65;100.00
59367;BME280;45163;47.690;11.770;2023-06-10T03:53:25;92935.16;;;11.53;100.00
59367;BME280;45163;47.690;11.770;2023-06-10T03:55:51;92941.50;;;11.40;100.00
59367;BME280;45163;47.690;11.770;2023-06-10T03:58:16;92937.41;;;11.45;100.00
59367;BME280;45163;47.690;11.770;2023-06-10T04:00:43;92938.50;;;11.47;100.00
59367;BME280;45163;47.690;11.770;2023-06-10T04:03:11;92942.47;;;11.56;100.00
59367;BME280;45163;47.690;11.770;2023-06-10T04:05:40;92949.03;;;11.58;100.00
59367;BME280;45163;47.690;11.770;2023-06-10T04:08:09;92946.81;;;11.75;100.00
59367;BME280;45163;47.690;11.770;2023-06-10T04:10:35;92948.72;;;11.87;100.00
59367;BME280;45163;47.690;11.770;2023-06-10T04:13:02;92950.03;;;11.83;100.00
59367;BME280;45163;47.690;11.770;2023-06-10T04:15:29;92939.44;;;11.94;100.00
59367;BME280;45163;47.690;11.770;2023-06-10T04:17:55;92947.31;;;11.83;100.00
59367;BME280;45163;47.690;11.770;2023-06-10T04:20:21;92954.34;;;11.93;100.00
59367;BME280;45163;47.690;11.770;2023-06-10T04:22:47;92940.81;;;11.89;100.00
59367;BME280;45163;47.690;11.770;2023-06-10T04:25:13;92946.28;;;11.89;100.00
59367;BME280;45163;47.690;11.770;2023-06-10T04:27:40;92948.50;;;11.82;100.00
59367;BME280;45163;47.690;11.770;2023-06-10T04:30:06;92946.28;;;11.89;100.00
59367;BME280;45163;47.690;11.770;2023-06-10T04:32:32;92954.19;;;11.96;100.00
59367;BME280;45163;47.690;11.770;2023-06-10T04:34:59;92954.06;;;12.00;100.00
59367;BME280;45163;47.690;11.770;2023-06-10T04:37:25;92947.66;;;12.03;100.00
59367;BME280;45163;47.690;11.770;2023-06-10T04:39:51;92950.88;;;12.11;100.00
59367;BME280;45163;47.690;11.770;2023-06-10T04:42:17;92938.88;;;12.08;100.00
59367;BME280;45163;47.690;11.770;2023-06-10T04:44:43;92954.84;;;12.10;100.00
59367;BME280;45163;47.690;11.770;2023-06-10T04:47:09;92950.59;;;12.18;100.00
59367;BME280;45163;47.690;11.770;2023-06-10T04:49:35;92950.00;;;12.41;100.00
59367;BME280;45163;47.690;11.770;2023-06-10T04:52:01;92953.38;;;12.55;100.00
59367;BME280;45163;47.690;11.770;2023-06-10T04:54:30;92947.91;;;12.73;100.00
59367;BME280;45163;47.690;11.770;2023-06-10T04:56:58;92948.97;;;12.85;100.00
59367;BME280;45163;47.690;11.770;2023-06-10T04:59:24;92950.19;;;12.93;100.00
59367;BME280;45163;47.690;11.770;2023-06-10T05:01:51;92948.03;;;13.06;100.00
59367;BME280;45163;47.690;11.770;2023-06-10T05:04:17;92942.66;;;13.39;100.00
59367;BME280;45163;47.690;11.770;2023-06-10T05:06:43;92945.31;;;13.67;100.00
59367;BME280;45163;47.690;11.770;2023-06-10T05:09:09;92940.94;;;13.93;100.00
59367;BME280;45163;47.690;11.770;2023-06-10T05:11:35;92949.47;;;14.19;100.00
59367;BME280;45163;47.690;11.770;2023-06-10T05:14:01;92951.94;;;14.41;100.00
59367;BME280;45163;47.690;11.770;2023-06-10T05:16:27;92941.91;;;14.62;100.00
59367;BME280;45163;47.690;11.770;2023-06-10T05:18:53;92949.84;;;14.84;100.00
59367;BME280;45163;47.690;11.770;2023-06-10T05:21:19;92948.16;;;15.02;100.00
59367;BME280;45163;47.690;11.770;2023-06-10T05:23:46;92941.06;;;15.25;100.00
59367;BME280;45163;47.690;11.770;2023-06-10T05:26:12;92944.28;;;15.53;100.00
59367;BME280;45163;47.690;11.770;2023-06-10T05:28:38;92945.53;;;15.66;100.00
59367;BME280;45163;47.690;11.770;2023-06-10T05:31:04;92945.69;;;15.92;100.00
59367;BME280;45163;47.690;11.770;2023-06-10T05:33:30;92943.75;;;16.13;100.00
59367;BME280;45163;47.690;11.770;2023-06-10T05:35:56;92947.91;;;16.24;100.00
59367;BME280;45163;47.690;11.770;2023-06-10T05:38:22;92946.63;;;16.39;100.00
59367;BME280;45163;47.690;11.770;2023-06-10T05:40:48;92951.44;;;16.44;100.00
59367;BME280;45163;47.690;11.770;2023-06-10T05:43:14;92944.34;;;16.58;100.00
59367;BME280;45163;47.690;11.770;2023-06-10T05:45:42;92938.66;;;16.82;100.00
59367;BME280;45163;47.690;11.770;2023-06-10T05:48:08;92944.44;;;16.84;100.00
59367;BME280;45163;47.690;11.770;2023-06-10T05:50:34;92945.78;;;17.15;100.00
59367;BME280;45163;47.690;11.770;2023-06-10T05:53:05;92945.94;;;17.06;100.00
59367;BME280;45163;47.690;11.770;2023-06-10T05:55:32;92944.44;;;16.84;100.00
59367;BME280;45163;47.690;11.770;2023-06-10T05:57:59;92940.31;;;17.21;100.00
59367;BME280;45163;47.690;11.770;2023-06-10T06:00:28;92943.28;;;17.43;100.00
59367;BME280;45163;47.690;11.770;2023-06-10T06:02:54;92948.81;;;17.43;100.00
59367;BME280;45163;47.690;11.770;2023-06-10T06:05:20;92956.41;;;17.48;100.00
59367;BME280;45163;47.690;11.770;2023-06-10T06:07:46;92940.69;;;18.23;100.00
59367;BME280;45163;47.690;11.770;2023-06-10T06:10:12;92949.25;;;18.31;100.00
59367;BME280;45163;47.690;11.770;2023-06-10T06:12:38;92952.00;;;18.25;100.00
59367;BME280;45163;47.690;11.770;2023-06-10T06:15:04;92950.78;;;18.75;100.00
59367;BME280;45163;47.690;11.770;2023-06-10T06:17:30;92954.72;;;19.16;100.00
59367;BME280;45163;47.690;11.770;2023-06-10T06:19:56;92952.25;;;19.24;100.00
59367;BME280;45163;47.690;11.770;2023-06-10T06:22:22;92953.25;;;19.32;100.00
59367;BME280;45163;47.690;11.770;2023-06-10T06:24:48;92957.25;;;19.20;100.00
59367;BME280;45163;47.690;11.770;2023-06-10T06:27:15;92954.97;;;19.13;100.00
59367;BME280;45163;47.690;11.770;2023-06-10T06:29:41;92952.06;;;20.40;100.00
59367;BME280;45163;47.690;11.770;2023-06-10T06:32:07;92950.03;;;20.63;100.00
59367;BME280;45163;47.690;11.770;2023-06-10T06:34:33;92953.84;;;20.32;100.00
59367;BME280;45163;47.690;11.770;2023-06-10T06:36:59;92956.94;;;21.09;100.00
59367;BME280;45163;47.690;11.770;2023-06-10T06:39:25;92952.31;;;20.53;100.00
59367;BME280;45163;47.690;11.770;2023-06-10T06:41:51;92951.13;;;21.12;100.00
59367;BME280;45163;47.690;11.770;2023-06-10T06:44:17;92950.38;;;21.59;100.00
59367;BME280;45163;47.690;11.770;2023-06-10T06:46:43;92948.16;;;22.23;100.00
59367;BME280;45163;47.690;11.770;2023-06-10T06:49:09;92959.22;;;21.93;100.00
59367;BME280;45163;47.690;11.770;2023-06-10T06:51:35;92960.44;;;22.03;100.00
59367;BME280;45163;47.690;11.770;2023-06-10T06:54:01;92957.69;;;21.09;100.00
59367;BME280;45163;47.690;11.770;2023-06-10T06:56:27;92960.75;;;22.30;100.00
59367;BME280;45163;47.690;11.770;2023-06-10T06:58:53;92957.34;;;23.35;94.30
59367;BME280;45163;47.690;11.770;2023-06-10T07:01:19;92962.28;;;21.89;100.00
59367;BME280;45163;47.690;11.770;2023-06-10T07:03:46;92960.50;;;21.92;100.00
59367;BME280;45163;47.690;11.770;2023-06-10T07:06:12;92960.38;;;22.09;100.00
59367;BME280;45163;47.690;11.770;2023-06-10T07:08:38;92967.38;;;22.21;100.00
59367;BME280;45163;47.690;11.770;2023-06-10T07:11:04;92964.66;;;22.70;96.89
59367;BME280;45163;47.690;11.770;2023-06-10T07:13:30;92969.75;;;22.91;98.03
59367;BME280;45163;47.690;11.770;2023-06-10T07:15:56;92957.94;;;22.84;95.46
59367;BME280;45163;47.690;11.770;2023-06-10T07:18:22;92960.59;;;23.39;94.70
59367;BME280;45163;47.690;11.770;2023-06-10T07:20:48;92959.31;;;23.59;95.46
59367;BME280;45163;47.690;11.770;2023-06-10T07:23:14;92959.34;;;23.16;94.98
59367;BME280;45163;47.690;11.770;2023-06-10T07:25:41;92962.28;;;23.67;92.55
59367;BME280;45163;47.690;11.770;2023-06-10T07:28:07;92959.75;;;24.01;86.56
59367;BME280;45163;47.690;11.770;2023-06-10T07:30:33;92964.88;;;23.97;86.54
59367;BME280;45163;47.690;11.770;2023-06-10T07:32:59;92963.63;;;24.11;86.75
59367;BME280;45163;47.690;11.770;2023-06-10T07:35:26;92961.19;;;23.13;92.79
59367;BME280;45163;47.690;11.770;2023-06-10T07:37:52;92955.84;;;23.53;85.21
59367;BME280;45163;47.690;11.770;2023-06-10T07:40:18;92951.91;;;25.30;80.78
59367;BME280;45163;47.690;11.770;2023-06-10T07:42:44;92954.41;;;25.81;76.06
59367;BME280;45163;47.690;11.770;2023-06-10T07:45:10;92953.00;;;25.14;82.24
59367;BME280;45163;47.690;11.770;2023-06-10T07:47:36;92958.56;;;23.77;93.31
59367;BME280;45163;47.690;11.770;2023-06-10T07:50:02;92953.47;;;24.14;87.52
59367;BME280;45163;47.690;11.770;2023-06-10T07:52:28;92950.84;;;24.93;86.70
59367;BME280;45163;47.690;11.770;2023-06-10T07:54:54;92946.06;;;24.62;87.03
59367;BME280;45163;47.690;11.770;2023-06-10T07:57:20;92949.66;;;25.42;80.06
59367;BME280;45163;47.690;11.770;2023-06-10T07:59:46;92951.66;;;25.41;82.21
59367;BME280;45163;47.690;11.770;2023-06-10T08:02:12;92950.75;;;25.25;82.52
59367;BME280;45163;47.690;11.770;2023-06-10T08:04:38;92944.88;;;26.81;75.47
59367;BME280;45163;47.690;11.770;2023-06-10T08:07:04;92952.28;;;26.99;74.93
59367;BME280;45163;47.690;11.770;2023-06-10T08:09:30;92949.22;;;26.61;73.57
59367;BME280;45163;47.690;11.770;2023-06-10T08:11:56;92945.63;;;26.81;73.95
59367;BME280;45163;47.690;11.770;2023-06-10T08:14:22;92945.31;;;26.43;76.94
59367;BME280;45163;47.690;11.770;2023-06-10T08:16:48;92944.22;;;27.24;72.63
59367;BME280;45163;47.690;11.770;2023-06-10T08:19:15;92946.94;;;27.09;72.03
59367;BME280;45163;47.690;11.770;2023-06-10T08:21:41;92945.06;;;27.40;68.51
59367;BME280;45163;47.690;11.770;2023-06-10T08:24:07;92943.47;;;27.24;68.54
59367;BME280;45163;47.690;11.770;2023-06-10T08:26:33;92938.25;;;26.99;69.80
59367;BME280;45163;47.690;11.770;2023-06-10T08:28:59;92942.91;;;26.05;76.70
59367;BME280;45163;47.690;11.770;2023-06-10T08:31:25;92933.41;;;27.72;66.59
59367;BME280;45163;47.690;11.770;2023-06-10T08:33:51;92938.22;;;26.00;74.28
59367;BME280;45163;47.690;11.770;2023-06-10T08:36:17;92937.25;;;27.54;66.23
59367;BME280;45163;47.690;11.770;2023-06-10T08:38:43;92932.34;;;27.39;66.56
59367;BME280;45163;47.690;11.770;2023-06-10T08:41:09;92934.31;;;28.34;65.07
59367;BME280;45163;47.690;11.770;2023-06-10T08:43:44;92940.72;;;28.58;61.99
59367;BME280;45163;47.690;11.770;2023-06-10T08:46:13;92936.69;;;27.48;65.69
59367;BME280;45163;47.690;11.770;2023-06-10T08:48:43;92932.50;;;29.53;61.16
59367;BME280;45163;47.690;11.770;2023-06-10T08:51:10;92931.50;;;29.82;56.13
59367;BME280;45163;47.690;11.770;2023-06-10T08:53:38;92931.66;;;29.84;50.33
59367;BME280;45163;47.690;11.770;2023-06-10T08:56:10;92924.56;;;28.27;55.53
59367;BME280;45163;47.690;11.770;2023-06-10T08:58:36;92928.25;;;27.84;56.16
59367;BME280;45163;47.690;11.770;2023-06-10T09:01:10;92922.47;;;29.35;49.94
59367;BME280;45163;47.690;11.770;2023-06-10T09:03:37;92919.16;;;29.14;54.15
59367;BME280;45163;47.690;11.770;2023-06-10T09:06:07;92927.41;;;30.15;51.30
59367;BME280;45163;47.690;11.770;2023-06-10T09:08:33;92922.69;;;30.68;47.33
59367;BME280;45163;47.690;11.770;2023-06-10T09:11:01;92922.13;;;31.12;45.73
59367;BME280;45163;47.690;11.770;2023-06-10T09:13:27;92922.13;;;31.12;43.29
59367;BME280;45163;47.690;11.770;2023-06-10T09:15:53;92920.34;;;30.82;43.22
59367;BME280;45163;47.690;11.770;2023-06-10T09:18:22;92923.22;;;31.68;40.81
59367;BME280;45163;47.690;11.770;2023-06-10T09:20:48;92923.97;;;31.52;39.84
59367;BME280;45163;47.690;11.770;2023-06-10T09:23:15;92913.97;;;30.56;40.52
59367;BME280;45163;47.690;11.770;2023-06-10T09:25:41;92912.91;;;30.94;39.55
59367;BME280;45163;47.690;11.770;2023-06-10T09:28:14;92915.00;;;30.18;41.61
59367;BME280;45163;47.690;11.770;2023-06-10T09:30:41;92924.81;;;31.62;39.29
59367;BME280;45163;47.690;11.770;2023-06-10T09:33:12;92915.63;;;30.34;40.53
59367;BME280;45163;47.690;11.770;2023-06-10T09:35:47;92910.19;;;31.90;36.13
59367;BME280;45163;47.690;11.770;2023-06-10T09:38:19;92910.72;;;31.27;36.02
59367;BME280;45163;47.690;11.770;2023-06-10T09:40:51;92918.09;;;31.57;36.21
59367;BME280;45163;47.690;11.770;2023-06-10T09:43:17;92924.03;;;31.79;35.67
59367;BME280;45163;47.690;11.770;2023-06-10T09:45:43;92920.25;;;29.82;36.02
59367;BME280;45163;47.690;11.770;2023-06-10T09:48:09;92930.63;;;30.62;37.17
59367;BME280;45163;47.690;11.770;2023-06-10T09:50:43;92915.81;;;30.86;37.01
59367;BME280;45163;47.690;11.770;2023-06-10T09:53:10;92918.47;;;29.46;38.96
59367;BME280;45163;47.690;11.770;2023-06-10T09:55:41;92915.56;;;30.17;36.60
59367;BME280;45163;47.690;11.770;2023-06-10T09:58:07;92912.97;;;29.71;39.38
59367;BME280;45163;47.690;11.770;2023-06-10T10:00:33;92918.28;;;30.32;36.60
59367;BME280;45163;47.690;11.770;2023-06-10T10:03:00;92932.06;;;29.17;40.04
59367;BME280;45163;47.690;11.770;2023-06-10T10:05:27;92920.44;;;28.13;42.70
59367;BME280;45163;47.690;11.770;2023-06-10T10:07:53;92920.78;;;27.43;46.36
59367;BME280;45163;47.690;11.770;2023-06-10T10:10:22;92919.69;;;27.53;48.91
59367;BME280;45163;47.690;11.770;2023-06-10T10:12:51;92932.03;;;28.10;46.03
59367;BME280;45163;47.690;11.770;2023-06-10T10:15:20;92931.50;;;28.34;46.27
59367;BME280;45163;47.690;11.770;2023-06-10T10:18:00;92939.09;;;27.88;49.95
59367;BME280;45163;47.690;11.770;2023-06-10T10:20:33;92931.34;;;27.65;52.48
59367;BME280;45163;47.690;11.770;2023-06-10T10:23:02;92938.81;;;26.69;57.37
59367;BME280;45163;47.690;11.770;2023-06-10T10:25:37;92938.97;;;26.01;62.81
59367;BME280;45163;47.690;11.770;2023-06-10T10:30:48;92944.09;;;27.30;60.62
59367;BME280;45163;47.690;11.770;2023-06-10T10:33:20;92950.09;;;26.56;61.47
59367;BME280;45163;47.690;11.770;2023-06-10T10:35:52;92945.53;;;27.23;57.98
59367;BME280;45163;47.690;11.770;2023-06-10T10:38:19;92938.63;;;27.68;56.20
59367;BME280;45163;47.690;11.770;2023-06-10T10:40:46;92945.78;;;26.76;57.38
59367;BME280;45163;47.690;11.770;2023-06-10T10:43:14;92943.94;;;27.87;53.81
59367;BME280;45163;47.690;11.770;2023-06-10T10:45:40;92947.16;;;27.11;55.34
59367;BME280;45163;47.690;11.770;2023-06-10T10:48:08;92947.91;;;27.48;54.76
59367;BME280;45163;47.690;11.770;2023-06-10T10:50:38;92941.84;;;28.77;50.67
59367;BME280;45163;47.690;11.770;2023-06-10T10:53:05;92942.91;;;27.18;52.62
59367;BME280;45163;47.690;11.770;2023-06-10T10:55:31;92953.06;;;27.07;55.28
59367;BME280;45163;47.690;11.770;2023-06-10T10:58:07;92940.47;;;27.58;51.71
59367;BME280;45163;47.690;11.770;2023-06-10T11:00:43;92950.50;;;26.18;56.20
59367;BME280;45163;47.690;11.770;2023-06-10T11:03:14;92950.66;;;26.83;55.12
59367;BME280;45163;47.690;11.770;2023-06-10T11:05:47;92953.06;;;25.95;59.96
59367;BME280;45163;47.690;11.770;2023-06-10T11:11:27;92944.59;;;25.40;64.84
59367;BME280;45163;47.690;11.770;2023-06-10T11:16:30;92953.69;;;23.83;78.63
59367;BME280;45163;47.690;11.770;2023-06-10T11:19:03;92941.47;;;25.44;70.22
59367;BME280;45163;47.690;11.770;2023-06-10T11:21:29;92941.63;;;26.27;67.72
59367;BME280;45163;47.690;11.770;2023-06-10T11:23:58;92941.91;;;26.58;64.29
59367;BME280;45163;47.690;11.770;2023-06-10T11:31:33;92940.41;;;29.95;41.81
59367;BME280;45163;47.690;11.770;2023-06-10T11:34:04;92935.97;;;31.00;37.24
59367;BME280;45163;47.690;11.770;2023-06-10T11:36:33;92942.31;;;31.60;33.05
59367;BME280;45163;47.690;11.770;2023-06-10T11:39:03;92939.81;;;31.82;32.25
59367;BME280;45163;47.690;11.770;2023-06-10T11:41:31;92939.81;;;31.99;31.06
59367;BME280;45163;47.690;11.770;2023-06-10T11:44:02;92934.56;;;29.68;37.29
59367;BME280;45163;47.690;11.770;2023-06-10T11:46:28;92939.78;;;28.93;40.46
59367;BME280;45163;47.690;11.770;2023-06-10T11:48:58;92933.75;;;29.12;39.77
59367;BME280;45163;47.690;11.770;2023-06-10T11:51:25;92926.47;;;28.86;42.87
59367;BME280;45163;47.690;11.770;2023-06-10T11:53:52;92928.97;;;29.53;40.75
59367;BME280;45163;47.690;11.770;2023-06-10T11:56:23;92931.78;;;30.84;37.39
59367;BME280;45163;47.690;11.770;2023-06-10T11:59:05;92925.84;;;32.01;34.02
59367;BME280;45163;47.690;11.770;2023-06-10T12:01:35;92922.09;;;31.37;36.66
59367;BME280;45163;47.690;11.770;2023-06-10T12:04:07;92930.19;;;31.67;34.79
59367;BME280;45163;47.690;11.770;2023-06-10T12:06:44;92925.22;;;33.50;30.15
59367;BME280;45163;47.690;11.770;2023-06-10T12:09:20;92921.25;;;33.06;30.19
59367;BME280;45163;47.690;11.770;2023-06-10T12:17:24;92921.50;;;34.56;27.41
59367;BME280;45163;47.690;11.770;2023-06-10T12:20:06;92907.94;;;34.85;26.03
59367;BME280;45163;47.690;11.770;2023-06-10T12:22:40;92911.38;;;35.15;26.82
59367;BME280;45163;47.690;11.770;2023-06-10T12:25:08;92918.03;;;33.19;28.77
59367;BME280;45163;47.690;11.770;2023-06-10T12:27:34;92911.72;;;34.28;27.11
59367;BME280;45163;47.690;11.770;2023-06-10T12:30:03;92915.28;;;32.56;28.96
59367;BME280;45163;47.690;11.770;2023-06-10T12:32:44;92905.28;;;32.45;29.78
59367;BME280;45163;47.690;11.770;2023-06-10T12:35:11;92909.00;;;32.47;30.31
59367;BME280;45163;47.690;11.770;2023-06-10T12:37:41;92894.06;;;32.37;29.77
59367;BME280;45163;47.690;11.770;2023-06-10T12:40:08;92904.06;;;33.99;28.49
59367;BME280;45163;47.690;11.770;2023-06-10T12:42:38;92900.63;;;32.77;28.45
59367;BME280;45163;47.690;11.770;2023-06-10T12:45:05;92900.56;;;31.07;31.56
59367;BME280;45163;47.690;11.770;2023-06-10T12:47:34;92895.09;;;33.15;29.22
59367;BME280;45163;47.690;11.770;2023-06-10T12:50:01;92893.41;;;31.75;29.60
59367;BME280;45163;47.690;11.770;2023-06-10T12:52:28;92890.13;;;31.69;29.88
59367;BME280;45163;47.690;11.770;2023-06-10T12:54:54;92889.19;;;31.66;29.60
59367;BME280;45163;47.690;11.770;2023-06-10T12:57:21;92896.16;;;33.59;26.76
59367;BME280;45163;47.690;11.770;2023-06-10T12:59:47;92885.13;;;33.34;27.67
59367;BME280;45163;47.690;11.770;2023-06-10T13:02:19;92895.72;;;33.62;27.50
59367;BME280;45163;47.690;11.770;2023-06-10T13:04:46;92886.44;;;35.35;25.64
59367;BME280;45163;47.690;11.770;2023-06-10T13:07:12;92876.09;;;32.06;27.52
59367;BME280;45163;47.690;11.770;2023-06-10T13:09:38;92884.50;;;28.88;32.48
59367;BME280;45163;47.690;11.770;2023-06-10T13:12:05;92883.94;;;28.90;32.82